createdAt,value
2023-05-14T00:03:05.929Z,12.98
2023-05-14T00:08:09.975Z,12.97
2023-05-14T00:13:14.080Z,12.91
2023-05-14T00:18:15.923Z,12.79
2023-05-14T00:23:17.682Z,12.68
2023-05-14T00:28:19.361Z,12.69
2023-05-14T00:33:23.705Z,12.70
2023-05-14T00:38:27.714Z,12.63
2023-05-14T00:43:33.953Z,12.50
2023-05-14T00:48:35.881Z,12.42
2023-05-14T00:53:37.707Z,12.34
2023-05-14T00:58:41.765Z,12.27
2023-05-14T01:03:43.681Z,12.19
2023-05-14T01:09:23.331Z,12.14
2023-05-14T01:14:41.968Z,12.04
2023-05-14T01:19:47.564Z,11.97
2023-05-14T01:24:53.801Z,11.89
2023-05-14T01:30:22.706Z,11.79
2023-05-14T01:35:28.068Z,11.73
2023-05-14T01:40:32.926Z,11.65
2023-05-14T01:45:36.191Z,11.62
2023-05-14T01:50:40.494Z,11.62
2023-05-14T01:55:44.501Z,11.58
2023-05-14T02:00:50.581Z,11.54
2023-05-14T02:05:56.800Z,11.52
2023-05-14T02:11:00.860Z,11.52
2023-05-14T02:16:08.928Z,11.53
2023-05-14T02:21:12.854Z,11.49
2023-05-14T02:26:16.682Z,11.43
2023-05-14T02:31:19.527Z,11.42
2023-05-14T02:36:21.437Z,11.43
2023-05-14T02:41:27.839Z,11.40
2023-05-14T02:46:31.271Z,11.38
2023-05-14T02:51:35.311Z,11.36
2023-05-14T02:56:37.154Z,11.32
2023-05-14T03:01:38.919Z,11.27
2023-05-14T03:06:41.321Z,11.65
2023-05-14T03:11:43.028Z,11.43
2023-05-14T03:16:47.271Z,11.33
2023-05-14T03:21:51.524Z,11.24
2023-05-14T03:26:55.678Z,11.16
2023-05-14T03:31:59.672Z,11.09
2023-05-14T03:37:01.663Z,11.05
2023-05-14T03:42:03.649Z,11.05
2023-05-14T03:47:09.746Z,11.41
2023-05-14T03:52:14.050Z,11.24
2023-05-14T03:57:18.639Z,11.17
2023-05-14T04:02:20.504Z,11.17
2023-05-14T04:07:24.965Z,11.18
2023-05-14T04:12:28.234Z,11.20
2023-05-14T04:17:33.923Z,11.26
2023-05-14T04:22:39.086Z,11.33
2023-05-14T04:27:43.134Z,11.42
2023-05-14T04:32:47.676Z,11.50
2023-05-14T04:37:52.148Z,11.62
2023-05-14T04:42:53.828Z,11.73
2023-05-14T04:47:55.906Z,11.85
2023-05-14T04:53:03.179Z,11.99
2023-05-14T04:58:05.262Z,12.15
2023-05-14T05:03:09.304Z,12.29
2023-05-14T05:08:11.526Z,12.43
2023-05-14T05:13:17.067Z,12.55
2023-05-14T05:18:19.141Z,12.70
2023-05-14T05:23:23.027Z,12.86
2023-05-14T05:28:24.777Z,13.01
2023-05-14T05:33:28.682Z,13.14
2023-05-14T05:38:35.335Z,13.27
2023-05-14T05:43:39.554Z,13.36
2023-05-14T05:48:43.603Z,13.51
2023-05-14T05:53:47.557Z,13.62
2023-05-14T05:58:49.449Z,13.79
2023-05-14T06:03:51.206Z,13.93
2023-05-14T06:08:52.931Z,14.05
2023-05-14T06:13:59.034Z,14.22
2023-05-14T06:19:06.397Z,14.38
2023-05-14T06:24:10.714Z,14.61
2023-05-14T06:29:12.678Z,14.84
2023-05-14T06:34:16.598Z,15.00
2023-05-14T06:39:18.314Z,15.20
2023-05-14T06:44:22.734Z,15.40
2023-05-14T06:49:24.804Z,15.65
2023-05-14T06:54:28.850Z,15.79
2023-05-14T06:59:33.330Z,15.84
2023-05-14T07:04:35.175Z,16.00
2023-05-14T07:09:36.960Z,16.18
2023-05-14T07:14:38.737Z,16.32
2023-05-14T07:19:44.077Z,16.55
2023-05-14T07:24:48.026Z,16.76
2023-05-14T07:29:52.439Z,16.89
2023-05-14T07:34:59.422Z,17.01
2023-05-14T07:40:03.341Z,17.06
2023-05-14T07:45:05.717Z,17.08
2023-05-14T07:50:10.769Z,17.12
2023-05-14T07:55:12.908Z,17.33
2023-05-14T08:00:18.071Z,17.36
2023-05-14T08:05:20.003Z,17.61
2023-05-14T08:10:21.859Z,17.76
2023-05-14T08:15:25.171Z,17.98
2023-05-14T08:20:31.936Z,18.15
2023-05-14T08:25:41.081Z,18.28
2023-05-14T08:30:42.890Z,18.26
2023-05-14T08:35:44.593Z,18.36
2023-05-14T08:40:56.719Z,18.60
2023-05-14T08:46:01.207Z,18.87
2023-05-14T08:51:03.124Z,19.14
2023-05-14T08:56:05.519Z,19.19
2023-05-14T09:01:09.725Z,19.35
2023-05-14T09:06:11.483Z,19.52
2023-05-14T09:11:15.610Z,19.46
2023-05-14T09:16:20.936Z,19.68
2023-05-14T09:21:23.146Z,20.14
2023-05-14T09:26:30.742Z,20.26
2023-05-14T09:31:33.600Z,20.41
2023-05-14T09:36:35.517Z,20.50
2023-05-14T09:41:39.635Z,20.67
2023-05-14T09:46:41.421Z,20.69
2023-05-14T09:51:46.898Z,20.99
2023-05-14T09:56:48.637Z,21.05
2023-05-14T10:01:51.389Z,20.87
2023-05-14T10:07:00.896Z,21.15
2023-05-14T10:12:02.659Z,21.16
2023-05-14T10:17:17.966Z,21.06
2023-05-14T10:22:27.546Z,21.03
2023-05-14T10:27:32.155Z,20.89
2023-05-14T10:32:34.183Z,20.91
2023-05-14T10:37:38.105Z,21.27
2023-05-14T10:42:46.367Z,21.56
2023-05-14T10:47:48.979Z,21.90
2023-05-14T10:52:55.564Z,21.86
2023-05-14T10:58:01.399Z,21.85
2023-05-14T11:03:07.159Z,21.95
2023-05-14T11:08:09.158Z,22.54
2023-05-14T11:13:11.856Z,22.62
2023-05-14T11:18:27.856Z,22.75
2023-05-14T11:23:29.811Z,23.08
2023-05-14T11:28:31.692Z,23.20
2023-05-14T11:33:33.432Z,23.49
2023-05-14T11:38:35.155Z,23.27
2023-05-14T11:43:36.882Z,23.37
2023-05-14T11:48:38.608Z,23.48
2023-05-14T11:53:42.668Z,23.43
2023-05-14T11:58:56.277Z,24.22
2023-05-14T12:04:00.614Z,25.21
2023-05-14T12:09:09.913Z,26.41
2023-05-14T12:14:15.821Z,27.50
2023-05-14T12:19:21.286Z,27.59
2023-05-14T12:24:27.998Z,28.23
2023-05-14T12:29:29.654Z,28.35
2023-05-14T12:34:34.852Z,28.81
2023-05-14T12:39:38.366Z,30.03
2023-05-14T12:44:40.198Z,30.52
2023-05-14T12:49:41.888Z,31.45
2023-05-14T12:54:45.914Z,32.18
2023-05-14T12:59:50.799Z,33.19
2023-05-14T13:04:54.631Z,33.15
2023-05-14T13:09:58.722Z,32.70
2023-05-14T13:15:02.976Z,32.47
2023-05-14T13:20:08.742Z,33.66
2023-05-14T13:25:10.742Z,34.68
2023-05-14T13:30:17.350Z,35.51
2023-05-14T13:35:21.599Z,35.41
2023-05-14T13:40:23.387Z,35.05
2023-05-14T13:45:25.348Z,35.04
2023-05-14T13:50:27.217Z,35.58
2023-05-14T13:55:29.159Z,35.84
2023-05-14T14:00:32.961Z,35.49
2023-05-14T14:05:40.073Z,35.23
2023-05-14T14:10:42.489Z,35.25
2023-05-14T14:15:47.249Z,35.19
2023-05-14T14:20:49.107Z,35.05
2023-05-14T14:25:53.249Z,34.40
2023-05-14T14:30:54.989Z,34.74
2023-05-14T14:35:59.082Z,35.63
2023-05-14T14:41:03.212Z,36.22
2023-05-14T14:46:09.244Z,36.63
2023-05-14T14:51:13.566Z,37.04
2023-05-14T14:56:18.509Z,37.88
2023-05-14T15:01:25.069Z,37.51
2023-05-14T15:06:29.232Z,37.25
2023-05-14T15:11:30.976Z,37.21
2023-05-14T15:16:34.952Z,37.44
2023-05-14T15:21:36.935Z,37.01
2023-05-14T15:26:38.848Z,36.04
2023-05-14T15:31:44.971Z,35.53
2023-05-14T15:36:46.762Z,35.55
2023-05-14T15:41:55.502Z,35.89
2023-05-14T15:46:57.471Z,34.85
2023-05-14T15:52:02.899Z,33.88
2023-05-14T15:57:07.105Z,33.01
2023-05-14T16:02:11.221Z,31.56
2023-05-14T16:07:13.449Z,30.77
2023-05-14T16:12:17.657Z,29.67
2023-05-14T16:17:21.626Z,29.48
2023-05-14T16:22:29.164Z,28.73
2023-05-14T16:27:33.702Z,28.27
2023-05-14T16:32:35.650Z,27.78
2023-05-14T16:37:37.393Z,27.37
2023-05-14T16:42:39.166Z,27.05
2023-05-14T16:47:41.442Z,26.39
2023-05-14T16:52:47.972Z,25.83
2023-05-14T16:57:52.275Z,25.38
2023-05-14T17:02:56.566Z,24.86
2023-05-14T17:07:58.313Z,24.33
2023-05-14T17:13:00.879Z,24.00
2023-05-14T17:18:06.319Z,23.54
2023-05-14T17:23:13.544Z,23.21
2023-05-14T17:28:15.484Z,22.84
2023-05-14T17:33:19.764Z,22.33
2023-05-14T17:38:21.467Z,22.11
2023-05-14T17:43:23.174Z,21.89
2023-05-14T17:48:27.738Z,21.64
2023-05-14T17:53:29.506Z,21.34
2023-05-14T17:58:31.238Z,21.15
2023-05-14T18:03:38.493Z,20.91
2023-05-14T18:08:41.028Z,20.77
2023-05-14T18:13:45.292Z,20.62
2023-05-14T18:18:47.171Z,20.46
2023-05-14T18:23:51.796Z,20.35
2023-05-14T18:28:53.515Z,20.20
2023-05-14T18:33:59.990Z,19.94
2023-05-14T18:39:05.286Z,19.76
2023-05-14T18:44:11.744Z,19.61
2023-05-14T18:49:19.529Z,19.52
2023-05-14T18:54:26.312Z,19.47
2023-05-14T18:59:31.422Z,19.35
2023-05-14T19:04:33.549Z,19.76
2023-05-14T19:09:38.785Z,19.33
2023-05-14T19:14:48.371Z,19.12
2023-05-14T19:19:56.833Z,18.91
2023-05-14T19:25:05.093Z,18.71
2023-05-14T19:30:08.272Z,18.45
2023-05-14T19:35:14.737Z,18.32
2023-05-14T19:40:19.140Z,18.31
2023-05-14T19:45:20.879Z,18.23
2023-05-14T19:50:25.035Z,18.18
2023-05-14T19:55:28.942Z,18.12
2023-05-14T20:00:30.863Z,18.13
2023-05-14T20:05:34.315Z,17.98
2023-05-14T20:10:36.027Z,17.88
2023-05-14T20:15:40.798Z,17.74
2023-05-14T20:20:44.794Z,17.61
2023-05-14T20:25:47.657Z,17.57
2023-05-14T20:30:52.283Z,17.34
2023-05-14T20:35:56.718Z,17.27
2023-05-14T20:40:58.561Z,17.20
2023-05-14T20:46:00.757Z,17.07
2023-05-14T20:51:04.900Z,16.99
2023-05-14T20:56:06.861Z,16.86
2023-05-14T21:01:09.605Z,16.77
2023-05-14T21:06:13.545Z,16.68
2023-05-14T21:11:15.278Z,16.64
2023-05-14T21:16:20.233Z,16.63
2023-05-14T21:21:22.005Z,16.54
2023-05-14T21:26:26.450Z,16.46
2023-05-14T21:31:30.938Z,16.30
2023-05-14T21:36:39.557Z,16.12
2023-05-14T21:41:41.431Z,15.93
2023-05-14T21:46:43.189Z,15.77
2023-05-14T21:51:52.904Z,15.64
2023-05-14T21:56:56.918Z,15.52
2023-05-14T22:07:08.984Z,15.28
2023-05-14T22:12:12.958Z,15.24
2023-05-14T22:17:14.696Z,15.18
2023-05-14T22:22:16.361Z,15.04
2023-05-14T22:27:18.404Z,14.93
2023-05-14T22:32:24.561Z,14.88
2023-05-14T22:37:29.228Z,14.73
2023-05-14T22:42:33.345Z,14.61
2023-05-14T22:47:35.109Z,14.59
2023-05-14T22:52:39.012Z,14.46
2023-05-14T22:57:42.911Z,14.33
2023-05-14T23:02:44.605Z,14.24
2023-05-14T23:07:46.287Z,14.17
2023-05-14T23:12:50.341Z,14.08
2023-05-14T23:17:52.193Z,14.02
2023-05-14T23:22:56.372Z,13.92
2023-05-14T23:28:00.362Z,13.80
2023-05-14T23:33:02.191Z,13.68
2023-05-14T23:38:04.965Z,13.65
2023-05-14T23:43:06.919Z,13.59
2023-05-14T23:48:08.695Z,13.50
2023-05-14T23:53:12.829Z,13.40
2023-05-14T23:58:16.983Z,13.38
